createdAt,value
2022-10-04T00:05:05.534Z,10.26
2022-10-04T00:10:36.128Z,10.27
2022-10-04T00:15:38.964Z,10.24
2022-10-04T00:20:49.160Z,10.23
2022-10-04T00:25:51.324Z,10.20
2022-10-04T00:31:14.440Z,10.22
2022-10-04T00:36:24.608Z,10.23
2022-10-04T00:41:28.411Z,10.15
2022-10-04T00:46:31.996Z,10.15
2022-10-04T00:52:01.733Z,10.13
2022-10-04T00:57:11.376Z,10.09
2022-10-04T01:02:15.494Z,10.06
2022-10-04T01:07:22.522Z,10.04
2022-10-04T01:12:50.276Z,10.03
2022-10-04T01:18:20.905Z,9.99
2022-10-04T01:23:37.967Z,9.95
2022-10-04T01:28:39.329Z,9.91
2022-10-04T01:33:40.724Z,9.90
2022-10-04T01:38:42.239Z,9.89
2022-10-04T01:43:50.323Z,9.89
2022-10-04T01:48:54.038Z,9.85
2022-10-04T01:54:09.712Z,9.84
2022-10-04T01:59:23.976Z,9.81
2022-10-04T02:04:33.224Z,9.78
2022-10-04T02:09:39.805Z,9.77
2022-10-04T02:14:47.385Z,9.74
2022-10-04T02:19:50.439Z,9.73
2022-10-04T02:24:54.802Z,9.70
2022-10-04T02:30:01.190Z,9.68
2022-10-04T02:35:03.904Z,9.67
2022-10-04T02:40:12.586Z,9.66
2022-10-04T02:45:31.623Z,9.63
2022-10-04T02:50:55.393Z,9.60
2022-10-04T02:55:58.373Z,9.56
2022-10-04T03:01:00.849Z,9.54
2022-10-04T03:06:07.212Z,9.55
2022-10-04T03:11:09.975Z,9.55
2022-10-04T03:16:11.538Z,9.53
2022-10-04T03:21:16.009Z,9.53
2022-10-04T03:26:30.618Z,9.55
2022-10-04T03:31:34.634Z,9.50
2022-10-04T03:36:36.130Z,9.46
2022-10-04T03:41:42.237Z,9.42
2022-10-04T03:46:45.332Z,9.40
2022-10-04T03:51:50.774Z,9.36
2022-10-04T03:56:52.456Z,9.36
2022-10-04T04:02:05.719Z,9.33
2022-10-04T04:07:13.024Z,9.31
2022-10-04T04:12:19.912Z,9.32
2022-10-04T04:17:27.346Z,9.28
2022-10-04T04:22:30.740Z,9.19
2022-10-04T04:27:37.006Z,9.16
2022-10-04T04:32:42.060Z,9.08
2022-10-04T04:37:43.456Z,9.04
2022-10-04T04:42:45.855Z,9.01
2022-10-04T04:47:53.183Z,8.99
2022-10-04T04:53:06.927Z,8.95
2022-10-04T04:58:12.828Z,8.96
2022-10-04T05:03:18.498Z,8.91
2022-10-04T05:08:23.293Z,8.88
2022-10-04T05:13:38.740Z,8.89
2022-10-04T05:18:40.280Z,8.90
2022-10-04T05:23:41.712Z,8.86
2022-10-04T05:28:43.115Z,8.80
2022-10-04T05:33:50.323Z,8.80
2022-10-04T05:39:41.912Z,8.76
2022-10-04T05:44:50.751Z,8.78
2022-10-04T05:49:57.853Z,8.76
2022-10-04T05:55:25.450Z,8.80
2022-10-04T06:00:42.572Z,8.85
2022-10-04T06:06:01.273Z,8.89
2022-10-04T06:11:11.797Z,8.94
2022-10-04T06:16:48.594Z,9.03
2022-10-04T06:21:49.957Z,9.12
2022-10-04T06:26:59.206Z,9.25
2022-10-04T06:32:22.299Z,9.22
2022-10-04T06:37:45.300Z,9.32
2022-10-04T06:42:49.847Z,9.41
2022-10-04T06:47:57.323Z,9.55
2022-10-04T06:53:22.653Z,9.61
2022-10-04T06:58:56.190Z,9.74
2022-10-04T07:04:00.572Z,9.91
2022-10-04T07:09:04.437Z,10.19
2022-10-04T07:14:15.405Z,10.36
2022-10-04T07:19:19.581Z,10.64
2022-10-04T07:24:49.616Z,10.84
2022-10-04T07:29:56.600Z,11.18
2022-10-04T07:35:04.222Z,11.53
2022-10-04T07:40:28.865Z,11.74
2022-10-04T07:45:33.975Z,12.07
2022-10-04T07:50:41.241Z,12.28
2022-10-04T07:56:00.719Z,12.41
2022-10-04T08:01:26.278Z,12.44
2022-10-04T08:06:44.467Z,12.39
2022-10-04T08:11:54.394Z,12.54
2022-10-04T08:17:15.198Z,12.73
2022-10-04T08:22:37.722Z,12.85
2022-10-04T08:27:53.220Z,13.39
2022-10-04T08:33:04.447Z,14.04
2022-10-04T08:38:22.677Z,14.09
2022-10-04T08:43:58.412Z,14.07
2022-10-04T08:49:44.357Z,14.82
2022-10-04T08:55:10.366Z,16.19
2022-10-04T09:00:18.389Z,17.54
2022-10-04T09:05:58.831Z,18.73
2022-10-04T09:11:18.998Z,19.03
2022-10-04T09:16:44.961Z,19.50
2022-10-04T09:21:46.514Z,20.29
2022-10-04T09:27:06.177Z,21.60
2022-10-04T09:32:21.543Z,22.34
2022-10-04T09:37:28.688Z,23.15
2022-10-04T09:42:51.309Z,23.85
2022-10-04T09:48:20.076Z,24.76
2022-10-04T09:53:40.199Z,24.78
2022-10-04T09:58:52.850Z,22.92
2022-10-04T10:04:10.422Z,23.42
2022-10-04T10:09:23.375Z,23.19
2022-10-04T10:14:54.395Z,22.51
2022-10-04T10:20:14.434Z,22.21
2022-10-04T10:26:02.680Z,21.60
2022-10-04T10:31:32.237Z,20.91
2022-10-04T10:37:07.661Z,20.22
2022-10-04T10:42:24.038Z,20.48
2022-10-04T10:47:52.555Z,20.86
2022-10-04T10:52:53.865Z,21.07
2022-10-04T10:58:10.417Z,21.20
2022-10-04T11:03:41.353Z,21.36
2022-10-04T11:09:04.588Z,21.27
2022-10-04T11:14:08.563Z,20.92
2022-10-04T11:19:34.386Z,19.82
2022-10-04T11:24:54.651Z,19.33
2022-10-04T11:30:16.220Z,18.74
2022-10-04T11:35:38.231Z,18.97
2022-10-04T11:40:49.752Z,19.82
2022-10-04T11:46:12.429Z,20.94
2022-10-04T11:51:32.838Z,21.65
2022-10-04T11:56:59.911Z,21.93
2022-10-04T12:02:30.526Z,22.64
2022-10-04T12:07:38.287Z,23.06
2022-10-04T12:13:04.451Z,22.89
2022-10-04T12:18:30.138Z,23.03
2022-10-04T12:24:02.598Z,23.45
2022-10-04T12:29:19.129Z,25.06
2022-10-04T12:34:44.839Z,26.48
2022-10-04T12:40:21.742Z,27.43
2022-10-04T12:45:30.757Z,28.57
2022-10-04T12:50:44.067Z,29.24
2022-10-04T12:55:59.609Z,29.47
2022-10-04T13:01:45.183Z,29.06
2022-10-04T13:07:10.577Z,29.20
2022-10-04T13:13:07.058Z,28.35
2022-10-04T13:18:42.366Z,28.79
2022-10-04T13:23:46.472Z,29.29
2022-10-04T13:29:14.463Z,28.91
2022-10-04T13:34:36.326Z,28.81
2022-10-04T13:40:02.180Z,28.71
2022-10-04T13:46:08.798Z,28.83
2022-10-04T13:51:19.185Z,28.65
2022-10-04T13:56:58.212Z,27.85
2022-10-04T14:02:26.476Z,26.94
2022-10-04T14:07:33.508Z,26.12
2022-10-04T14:12:37.746Z,25.12
2022-10-04T14:17:54.372Z,24.41
2022-10-04T14:23:17.688Z,23.76
2022-10-04T14:28:37.236Z,23.03
2022-10-04T14:34:15.626Z,22.63
2022-10-04T14:39:53.918Z,22.37
2022-10-04T14:45:17.104Z,22.07
2022-10-04T14:50:38.101Z,21.76
2022-10-04T14:56:02.872Z,21.57
2022-10-04T15:01:26.772Z,21.32
2022-10-04T15:06:47.252Z,21.33
2022-10-04T15:12:27.025Z,21.38
2022-10-04T15:17:32.917Z,21.41
2022-10-04T15:22:50.249Z,21.15
2022-10-04T15:27:56.580Z,21.24
2022-10-04T15:33:25.413Z,21.35
2022-10-04T15:38:56.059Z,21.35
2022-10-04T15:44:09.535Z,21.22
2022-10-04T15:49:37.351Z,21.15
2022-10-04T15:55:01.035Z,20.99
2022-10-04T16:00:11.443Z,20.85
2022-10-04T16:05:34.395Z,20.61
2022-10-04T16:11:20.539Z,20.44
2022-10-04T16:16:35.536Z,20.14
2022-10-04T16:22:15.703Z,19.91
2022-10-04T16:27:33.880Z,19.68
2022-10-04T16:33:04.967Z,19.38
2022-10-04T16:38:12.620Z,19.12
2022-10-04T16:43:16.991Z,18.91
2022-10-04T16:48:24.439Z,18.64
2022-10-04T16:53:44.075Z,18.44
2022-10-04T16:59:12.377Z,18.20
2022-10-04T17:04:38.206Z,18.07
2022-10-04T17:10:04.575Z,17.80
2022-10-04T17:15:05.898Z,17.58
2022-10-04T17:20:22.411Z,17.37
2022-10-04T17:25:59.159Z,17.18
2022-10-04T17:31:14.217Z,16.97
2022-10-04T17:36:28.608Z,16.81
2022-10-04T17:41:35.755Z,16.69
2022-10-04T17:46:54.424Z,16.59
2022-10-04T17:52:01.514Z,16.43
2022-10-04T17:57:02.874Z,16.27
2022-10-04T18:02:11.916Z,16.14
2022-10-04T18:07:47.517Z,16.00
2022-10-04T18:12:55.694Z,15.94
2022-10-04T18:18:14.806Z,15.83
2022-10-04T18:23:27.024Z,15.79
2022-10-04T18:28:28.648Z,15.84
2022-10-04T18:33:47.205Z,15.75
2022-10-04T18:39:13.350Z,15.64
2022-10-04T18:44:17.127Z,15.55
2022-10-04T18:49:24.241Z,15.43
2022-10-04T18:55:13.879Z,15.31
2022-10-04T19:00:15.540Z,15.19
2022-10-04T19:05:26.625Z,15.08
2022-10-04T19:10:44.046Z,14.99
2022-10-04T19:16:11.433Z,14.89
2022-10-04T19:21:47.242Z,14.79
2022-10-04T19:27:01.855Z,14.68
2022-10-04T19:32:44.664Z,14.57
2022-10-04T19:37:55.041Z,14.43
2022-10-04T19:43:25.217Z,14.55
2022-10-04T19:48:28.064Z,14.68
2022-10-04T19:53:38.552Z,14.58
2022-10-04T19:58:47.502Z,14.52
2022-10-04T20:03:49.240Z,14.48
2022-10-04T20:08:59.386Z,14.44
2022-10-04T20:14:03.110Z,14.39
2022-10-04T20:19:35.832Z,14.33
2022-10-04T20:24:37.117Z,14.23
2022-10-04T20:29:38.419Z,14.11
2022-10-04T20:34:39.683Z,13.97
2022-10-04T20:39:41.134Z,13.85
2022-10-04T20:44:46.772Z,13.77
2022-10-04T20:49:48.202Z,13.63
2022-10-04T20:54:53.164Z,13.49
2022-10-04T20:59:54.772Z,13.42
2022-10-04T21:05:12.736Z,13.29
2022-10-04T21:10:19.958Z,13.20
2022-10-04T21:15:22.534Z,13.05
2022-10-04T21:20:44.498Z,12.99
2022-10-04T21:25:45.887Z,12.89
2022-10-04T21:30:47.240Z,12.78
2022-10-04T21:35:52.129Z,12.73
2022-10-04T21:40:53.489Z,12.69
2022-10-04T21:45:54.906Z,12.67
2022-10-04T21:50:56.413Z,12.60
2022-10-04T21:55:57.843Z,12.59
2022-10-04T22:00:59.315Z,12.55
2022-10-04T22:06:00.887Z,12.54
2022-10-04T22:11:02.309Z,12.50
2022-10-04T22:16:04.609Z,12.48
2022-10-04T22:21:06.519Z,12.42
2022-10-04T22:26:15.083Z,12.39
2022-10-04T22:31:19.588Z,12.36
2022-10-04T22:36:29.931Z,12.33
2022-10-04T22:41:34.322Z,12.31
2022-10-04T22:46:41.871Z,12.27
2022-10-04T22:51:44.903Z,12.20
2022-10-04T22:56:47.111Z,12.15
2022-10-04T23:01:48.716Z,12.13
2022-10-04T23:06:51.350Z,12.09
2022-10-04T23:11:52.709Z,12.09
2022-10-04T23:16:54.162Z,12.02
2022-10-04T23:21:55.533Z,11.98
2022-10-04T23:26:56.922Z,11.93
2022-10-04T23:31:58.406Z,11.91
2022-10-04T23:36:59.949Z,11.86
2022-10-04T23:42:07.445Z,11.82
2022-10-04T23:47:15.140Z,11.82
2022-10-04T23:52:25.163Z,11.77
2022-10-04T23:57:29.099Z,11.75
